Time;durP1;ratioP1;P1;durP2;ratioP2;P2;SDS_P1;SDS_P2;PMS_P1;PMS_P2;Temp;Humidity;BMP_temperature;BMP_pressure;BME280_temperature;BME280_humidity;BME280_pressure;Samples;Min_cycle;Max_cycle;Signal;HPM_P1;HPM_P2
2023/04/17 00:04:04;;;;;;;17.90;15.23;;;9.90;99.90;;;;;;10428650;28;20478;-70
2023/04/17 00:09:05;;;;;;;18.17;15.27;;;9.90;99.90;;;;;;10429468;28;20212;-74
2023/04/17 00:14:05;;;;;;;18.77;15.33;;;9.90;99.90;;;;;;10437233;28;20220;-73
2023/04/17 00:19:06;;;;;;;19.30;15.70;;;10.00;99.90;;;;;;10429568;28;20216;-72
2023/04/17 00:24:06;;;;;;;16.40;14.70;;;9.90;99.90;;;;;;10435183;28;20216;-73
2023/04/17 00:29:07;;;;;;;18.20;14.13;;;10.00;99.90;;;;;;10428006;28;20304;-72
2023/04/17 00:34:07;;;;;;;14.00;12.30;;;9.90;99.90;;;;;;10425837;28;20217;-73
2023/04/17 00:39:08;;;;;;;15.33;12.03;;;9.90;99.90;;;;;;10427088;28;20670;-74
2023/04/17 00:44:08;;;;;;;15.30;12.87;;;9.90;99.90;;;;;;10432997;28;20227;-73
2023/04/17 00:49:09;;;;;;;15.93;12.60;;;9.90;99.90;;;;;;10427815;28;20297;-75
2023/04/17 00:54:11;;;;;;;18.23;13.87;;;9.90;99.90;;;;;;10431927;28;20605;-72
2023/04/17 00:59:16;;;;;;;15.87;13.63;;;9.90;99.90;;;;;;10418767;28;20294;-72
2023/04/17 01:04:17;;;;;;;17.47;14.97;;;9.90;99.90;;;;;;10432907;28;20220;-73
2023/04/17 01:09:17;;;;;;;18.43;15.20;;;9.90;99.90;;;;;;10422769;28;20595;-72
2023/04/17 01:14:18;;;;;;;18.10;14.87;;;9.90;99.90;;;;;;10418680;28;20216;-72
2023/04/17 01:19:19;;;;;;;17.63;15.00;;;9.80;99.90;;;;;;10425993;28;20266;-73
2023/04/17 01:24:19;;;;;;;20.63;15.30;;;9.80;99.90;;;;;;10420671;28;20247;-73
2023/04/17 01:29:20;;;;;;;18.00;14.70;;;9.80;99.90;;;;;;10430956;28;20230;-73
2023/04/17 01:34:21;;;;;;;18.77;14.23;;;9.80;99.90;;;;;;10424087;28;20224;-72
2023/04/17 01:39:21;;;;;;;16.53;14.30;;;9.80;99.90;;;;;;10424551;28;20256;-70
2023/04/17 01:44:22;;;;;;;19.50;15.40;;;9.80;99.90;;;;;;10432307;28;20228;-70
2023/04/17 01:49:22;;;;;;;16.67;14.57;;;9.80;99.90;;;;;;10424504;28;20224;-69
2023/04/17 01:54:23;;;;;;;17.57;14.93;;;9.80;99.90;;;;;;10422149;28;20314;-69
2023/04/17 01:59:24;;;;;;;22.40;16.90;;;9.80;99.90;;;;;;10431963;28;20449;-69
2023/04/17 02:04:25;;;;;;;22.13;17.37;;;9.80;99.90;;;;;;10422821;28;20662;-69
2023/04/17 02:09:25;;;;;;;21.70;18.20;;;9.80;99.90;;;;;;10430770;28;20738;-70
2023/04/17 02:14:30;;;;;;;23.43;18.30;;;9.80;99.90;;;;;;10423666;28;20707;-69
2023/04/17 02:19:30;;;;;;;23.17;19.10;;;9.80;99.90;;;;;;10415894;28;20695;-69
2023/04/17 02:24:33;;;;;;;25.50;19.63;;;9.80;99.90;;;;;;10430648;28;20231;-69
2023/04/17 02:29:34;;;;;;;25.13;19.90;;;9.80;99.90;;;;;;10423520;28;20229;-75
2023/04/17 02:34:35;;;;;;;24.47;20.30;;;9.80;99.90;;;;;;10422084;28;20219;-73
2023/04/17 02:39:35;;;;;;;23.50;20.10;;;9.80;99.90;;;;;;10422508;28;20307;-72
2023/04/17 02:44:36;;;;;;;20.50;17.97;;;9.80;99.90;;;;;;10429785;28;20223;-72
2023/04/17 02:49:36;;;;;;;20.87;17.23;;;9.80;99.90;;;;;;10419994;28;20212;-71
2023/04/17 02:54:37;;;;;;;21.83;17.60;;;9.70;99.90;;;;;;10430985;28;20235;-72
2023/04/17 02:59:38;;;;;;;21.93;18.57;;;9.70;99.90;;;;;;10418231;28;20225;-73
2023/04/17 03:04:38;;;;;;;22.70;19.53;;;9.70;99.90;;;;;;10422516;28;20235;-73
2023/04/17 03:09:39;;;;;;;23.33;20.47;;;9.70;99.90;;;;;;10414947;28;20239;-73
2023/04/17 03:14:40;;;;;;;24.53;21.43;;;9.70;99.90;;;;;;10423319;28;20698;-75
2023/04/17 03:19:40;;;;;;;24.27;20.33;;;9.60;99.90;;;;;;10422832;28;20212;-72
2023/04/17 03:24:41;;;;;;;25.57;21.03;;;9.60;99.90;;;;;;10431654;28;20260;-72
2023/04/17 03:29:42;;;;;;;29.63;23.03;;;9.60;99.90;;;;;;10428762;28;20231;-72
2023/04/17 03:34:42;;;;;;;25.50;21.93;;;9.50;99.90;;;;;;10423784;28;20769;-73
2023/04/17 03:39:43;;;;;;;30.10;24.23;;;9.50;99.90;;;;;;10428117;28;20249;-72
2023/04/17 03:44:43;;;;;;;29.43;23.83;;;9.50;99.90;;;;;;10435613;28;20629;-73
2023/04/17 03:49:44;;;;;;;30.00;24.17;;;9.50;99.90;;;;;;10439393;28;20216;-72
2023/04/17 03:54:45;;;;;;;31.13;25.33;;;9.40;99.90;;;;;;10433491;28;20231;-72
2023/04/17 03:59:46;;;;;;;32.23;26.27;;;9.30;99.90;;;;;;10427986;28;20598;-73
2023/04/17 04:04:46;;;;;;;31.53;26.67;;;9.10;99.90;;;;;;10429563;28;20224;-71
2023/04/17 04:09:47;;;;;;;34.13;27.10;;;9.00;99.90;;;;;;10432944;28;20314;-73
2023/04/17 04:14:48;;;;;;;35.13;28.70;;;9.00;99.90;;;;;;10429763;28;20237;-74
2023/04/17 04:19:48;;;;;;;35.27;27.90;;;9.00;99.90;;;;;;10432835;28;20323;-71
2023/04/17 04:24:52;;;;;;;38.90;28.87;;;8.90;99.90;;;;;;10430026;28;20243;-70
2023/04/17 04:29:57;;;;;;;34.17;27.93;;;8.90;99.90;;;;;;10431278;28;20289;-69
2023/04/17 04:35:00;;;;;;;38.13;30.33;;;8.80;99.90;;;;;;10425516;28;20691;-70
2023/04/17 04:40:09;;;;;;;39.10;30.07;;;8.90;99.90;;;;;;10434509;28;20220;-72
2023/04/17 04:45:10;;;;;;;39.30;29.37;;;8.90;99.90;;;;;;10430179;28;20214;-71
2023/04/17 04:50:11;;;;;;;35.97;29.63;;;8.80;99.90;;;;;;10428740;28;20188;-71
2023/04/17 04:55:13;;;;;;;37.97;31.73;;;8.80;99.90;;;;;;10434979;28;20247;-73
2023/04/17 05:00:14;;;;;;;42.37;31.83;;;8.80;99.90;;;;;;10416724;28;20569;-72
2023/04/17 05:05:15;;;;;;;45.43;33.00;;;8.70;99.90;;;;;;10426406;28;20215;-73
2023/04/17 05:10:15;;;;;;;38.50;32.97;;;8.70;99.90;;;;;;10420763;28;20628;-73
2023/04/17 05:15:16;;;;;;;41.47;32.33;;;8.80;99.90;;;;;;10423754;28;20219;-73
2023/04/17 05:20:17;;;;;;;37.20;31.27;;;8.90;99.90;;;;;;10428405;28;20270;-74
2023/04/17 05:25:19;;;;;;;40.47;31.70;;;9.10;99.90;;;;;;10427284;28;20187;-74
2023/04/17 05:30:20;;;;;;;36.17;29.97;;;9.20;99.90;;;;;;10426137;28;20201;-74
2023/04/17 05:35:21;;;;;;;36.07;30.03;;;9.30;99.90;;;;;;10431977;28;20216;-73
2023/04/17 05:40:21;;;;;;;36.67;30.27;;;9.50;99.90;;;;;;10426833;28;20184;-75
2023/04/17 05:45:22;;;;;;;35.50;28.43;;;9.60;99.90;;;;;;10426452;28;20275;-74
2023/04/17 05:50:22;;;;;;;36.23;28.77;;;9.60;99.90;;;;;;10423849;28;20200;-73
2023/04/17 05:55:23;;;;;;;33.37;29.00;;;9.70;99.90;;;;;;10424823;28;20216;-74
2023/04/17 06:00:24;;;;;;;37.07;28.87;;;9.70;99.90;;;;;;10431803;28;20282;-73
2023/04/17 06:05:25;;;;;;;31.90;27.07;;;9.80;99.90;;;;;;10424971;28;20224;-72
2023/04/17 06:10:25;;;;;;;35.27;27.20;;;10.00;99.90;;;;;;10432045;28;20211;-73
2023/04/17 06:15:26;;;;;;;32.03;26.63;;;10.10;99.90;;;;;;10425115;28;20228;-74
2023/04/17 06:20:29;;;;;;;31.27;25.63;;;10.40;99.90;;;;;;10432829;28;20223;-74
2023/04/17 06:25:30;;;;;;;28.87;25.47;;;10.60;99.90;;;;;;10416975;28;20248;-75
2023/04/17 06:30:31;;;;;;;26.57;23.63;;;10.80;99.90;;;;;;10424356;28;20240;-74
2023/04/17 06:35:32;;;;;;;25.60;21.30;;;11.20;99.90;;;;;;10431171;28;20227;-73
2023/04/17 06:40:33;;;;;;;24.87;21.77;;;11.50;99.90;;;;;;10426116;28;20350;-74
2023/04/17 06:45:34;;;;;;;24.90;20.77;;;11.60;99.90;;;;;;10431967;28;20306;-75
2023/04/17 06:50:35;;;;;;;28.13;21.97;;;11.60;99.90;;;;;;10432472;28;20263;-74
2023/04/17 06:55:35;;;;;;;20.77;18.67;;;11.80;99.90;;;;;;10429365;28;20662;-74
2023/04/17 07:00:36;;;;;;;20.07;17.53;;;12.20;99.90;;;;;;10432871;28;20220;-74
2023/04/17 07:05:37;;;;;;;20.87;18.63;;;12.50;99.90;;;;;;10421540;28;20319;-73
2023/04/17 07:10:37;;;;;;;21.30;18.20;;;12.40;99.90;;;;;;10423626;28;20679;-75
2023/04/17 07:15:38;;;;;;;20.20;17.90;;;12.40;99.90;;;;;;10437212;28;20231;-75
2023/04/17 07:20:38;;;;;;;21.17;17.23;;;12.50;99.90;;;;;;10432956;28;20225;-75
2023/04/17 07:25:39;;;;;;;16.43;14.73;;;12.60;99.90;;;;;;10436628;28;20238;-75
2023/04/17 07:30:41;;;;;;;18.40;16.50;;;12.80;99.90;;;;;;10429829;28;20220;-75
2023/04/17 07:35:42;;;;;;;20.13;17.50;;;12.80;99.90;;;;;;10433795;28;20228;-74
2023/04/17 07:40:43;;;;;;;17.97;16.07;;;12.90;99.90;;;;;;10439846;28;20221;-75
2023/04/17 07:45:43;;;;;;;19.87;17.47;;;12.90;99.90;;;;;;10429185;28;20224;-74
2023/04/17 07:50:48;;;;;;;19.17;17.17;;;12.80;99.90;;;;;;10429018;28;20226;-73
2023/04/17 07:55:49;;;;;;;23.57;17.27;;;12.50;99.90;;;;;;10434457;28;20330;-76
2023/04/17 08:00:50;;;;;;;20.60;16.87;;;12.30;99.90;;;;;;10430288;28;20212;-75
2023/04/17 08:05:52;;;;;;;19.43;17.37;;;12.20;99.90;;;;;;10427898;28;20217;-75
2023/04/17 08:10:53;;;;;;;19.27;16.03;;;12.10;99.90;;;;;;10423573;28;20232;-75
2023/04/17 08:15:54;;;;;;;19.30;16.70;;;12.00;99.90;;;;;;10429846;28;20227;-73
2023/04/17 08:20:54;;;;;;;19.77;16.97;;;11.90;99.90;;;;;;10431517;28;20307;-75
2023/04/17 08:25:57;;;;;;;19.67;17.07;;;12.00;99.90;;;;;;10432346;28;20220;-73
2023/04/17 08:30:58;;;;;;;17.27;15.37;;;11.90;99.90;;;;;;10432838;28;20687;-74
2023/04/17 08:36:01;;;;;;;17.87;15.57;;;12.00;99.90;;;;;;10430639;28;20276;-75
2023/04/17 08:41:05;;;;;;;17.23;15.07;;;12.10;99.90;;;;;;10422723;28;20239;-74
2023/04/17 08:46:06;;;;;;;19.87;15.50;;;12.20;99.90;;;;;;10426843;28;20219;-74
2023/04/17 08:51:07;;;;;;;18.13;16.13;;;12.30;99.90;;;;;;10429875;28;20217;-75
2023/04/17 08:56:10;;;;;;;18.70;16.80;;;12.10;99.90;;;;;;10426129;28;20232;-75
2023/04/17 09:01:15;;;;;;;19.67;17.40;;;11.90;99.90;;;;;;10431662;28;20230;-75
2023/04/17 09:06:16;;;;;;;20.97;18.10;;;11.70;99.90;;;;;;10425500;28;20227;-75
2023/04/17 09:11:16;;;;;;;22.17;18.57;;;11.50;99.90;;;;;;10412028;28;20692;-74
2023/04/17 09:16:20;;;;;;;16.13;13.13;;;11.40;99.90;;;;;;10432855;28;20545;-75
2023/04/17 09:21:27;;;;;;;14.13;12.23;;;11.10;99.90;;;;;;10436379;28;20267;-73
2023/04/17 09:26:32;;;;;;;19.77;13.30;;;11.00;99.90;;;;;;10434193;28;20256;-74
2023/04/17 09:31:36;;;;;;;13.17;10.97;;;10.90;99.90;;;;;;10418273;28;20328;-74
2023/04/17 09:36:40;;;;;;;14.27;11.50;;;10.80;99.90;;;;;;10432346;28;20322;-74
2023/04/17 09:41:41;;;;;;;12.50;11.20;;;10.70;99.90;;;;;;10419151;28;20210;-73
2023/04/17 09:46:46;;;;;;;13.40;11.63;;;10.80;99.90;;;;;;10424221;28;20265;-75
2023/04/17 09:51:48;;;;;;;13.53;12.13;;;10.90;99.90;;;;;;10426222;28;20263;-75
2023/04/17 09:56:51;;;;;;;14.87;13.27;;;11.10;99.90;;;;;;10429895;28;20238;-73
2023/04/17 10:01:52;;;;;;;15.87;13.10;;;11.20;99.90;;;;;;10425751;28;20232;-76
2023/04/17 10:06:57;;;;;;;14.83;13.13;;;11.40;99.90;;;;;;10433414;28;20221;-74
2023/04/17 10:12:00;;;;;;;14.47;12.97;;;11.50;99.90;;;;;;10428828;28;20219;-75
2023/04/17 10:17:24;;;;;;;12.13;10.93;;;11.70;99.90;;;;;;10426620;28;20453;-74
2023/04/17 10:22:24;;;;;;;12.77;10.30;;;11.90;99.90;;;;;;10424152;28;20228;-75
2023/04/17 10:27:25;;;;;;;10.10;9.10;;;12.50;99.90;;;;;;10423998;28;20223;-75
2023/04/17 10:32:33;;;;;;;8.97;7.53;;;13.20;99.90;;;;;;10431242;28;20698;-75
2023/04/17 10:37:51;;;;;;;7.20;6.50;;;14.10;99.90;;;;;;10414814;28;20216;-74
2023/04/17 10:43:10;;;;;;;7.93;5.70;;;17.40;99.90;;;;;;10425166;28;20384;-75
2023/04/17 10:48:26;;;;;;;6.23;5.53;;;20.00;99.90;;;;;;10429704;28;20231;-74
2023/04/17 10:53:38;;;;;;;5.87;5.23;;;18.40;99.90;;;;;;10430125;28;20234;-74
2023/04/17 10:58:57;;;;;;;6.97;6.27;;;17.20;99.90;;;;;;10419388;28;20222;-75
2023/04/17 11:03:58;;;;;;;9.07;5.50;;;16.30;99.90;;;;;;10433417;28;20219;-75
2023/04/17 11:08:59;;;;;;;6.60;5.90;;;15.70;99.90;;;;;;10432083;28;20218;-76
2023/04/17 11:14:05;;;;;;;8.30;4.83;;;15.80;99.90;;;;;;10429488;28;20222;-74
2023/04/17 11:19:10;;;;;;;10.37;5.20;;;15.90;99.90;;;;;;10430890;28;20362;-74
2023/04/17 11:24:13;;;;;;;2.40;2.20;;;16.00;99.90;;;;;;10434102;28;20759;-75
2023/04/17 11:29:20;;;;;;;1.70;1.60;;;16.00;99.90;;;;;;10434883;28;20227;-73
2023/04/17 11:34:22;;;;;;;4.80;2.10;;;15.20;99.90;;;;;;10432219;28;20984;-76
2023/04/17 11:39:24;;;;;;;2.30;1.73;;;14.90;99.90;;;;;;10429671;28;20306;-75
2023/04/17 11:44:25;;;;;;;2.70;1.43;;;15.10;99.90;;;;;;10427870;28;20208;-75
2023/04/17 11:49:31;;;;;;;1.53;1.43;;;14.90;99.90;;;;;;10429174;28;20216;-74
2023/04/17 11:54:37;;;;;;;2.17;1.70;;;14.40;99.90;;;;;;10422481;28;20236;-74
2023/04/17 11:59:40;;;;;;;2.70;1.77;;;14.60;99.90;;;;;;10434134;28;20249;-75
2023/04/17 12:04:41;;;;;;;1.87;1.70;;;14.80;99.90;;;;;;10430121;28;20220;-75
2023/04/17 12:09:42;;;;;;;1.90;1.73;;;14.90;99.90;;;;;;10429423;28;20282;-75
2023/04/17 12:14:42;;;;;;;3.37;2.10;;;14.90;99.90;;;;;;10434960;28;20228;-75
2023/04/17 12:19:44;;;;;;;2.97;2.07;;;14.70;99.90;;;;;;10399712;28;20208;-74
2023/04/17 12:24:44;;;;;;;3.90;2.10;;;14.50;99.90;;;;;;10431026;28;20221;-74
2023/04/17 12:29:45;;;;;;;2.90;2.00;;;14.70;99.90;;;;;;10434979;28;20224;-75
2023/04/17 12:34:46;;;;;;;3.27;1.70;;;14.70;99.90;;;;;;10430034;28;20224;-75
2023/04/17 12:39:46;;;;;;;3.87;1.90;;;14.80;99.90;;;;;;10432019;28;20216;-75
2023/04/17 12:44:47;;;;;;;3.57;1.87;;;14.90;99.90;;;;;;10427344;28;20743;-74
2023/04/17 12:49:48;;;;;;;2.63;2.20;;;14.60;99.90;;;;;;10424380;28;20273;-75
2023/04/17 12:54:50;;;;;;;4.03;2.50;;;14.20;99.90;;;;;;10426407;28;20239;-74
2023/04/17 12:59:51;;;;;;;3.27;2.50;;;13.70;99.90;;;;;;10429711;28;20213;-74
2023/04/17 13:04:52;;;;;;;4.20;2.80;;;13.50;99.90;;;;;;10425760;28;20695;-74
2023/04/17 13:09:52;;;;;;;4.40;2.43;;;13.30;99.90;;;;;;10422704;28;20236;-74
2023/04/17 13:14:56;;;;;;;3.33;2.47;;;13.30;99.90;;;;;;10418109;28;20235;-75
2023/04/17 13:19:56;;;;;;;2.70;2.50;;;13.40;99.90;;;;;;10430799;28;20247;-74
2023/04/17 13:25:01;;;;;;;3.80;2.30;;;13.80;99.90;;;;;;10426642;28;20237;-74
2023/04/17 13:30:02;;;;;;;3.07;2.30;;;14.30;99.90;;;;;;10437589;28;20216;-74
2023/04/17 13:35:03;;;;;;;3.60;2.40;;;14.30;99.90;;;;;;10428971;28;20224;-75
2023/04/17 13:40:08;;;;;;;3.93;2.40;;;14.20;99.90;;;;;;10428550;28;20219;-74
2023/04/17 13:45:09;;;;;;;3.80;2.60;;;14.20;99.90;;;;;;10431583;28;20204;-73
2023/04/17 13:50:10;;;;;;;2.37;1.90;;;14.50;99.90;;;;;;10425161;28;20173;-74
2023/04/17 13:55:13;;;;;;;2.37;2.17;;;14.80;99.90;;;;;;10430334;28;20208;-74
2023/04/17 14:00:14;;;;;;;2.97;1.90;;;14.80;99.90;;;;;;10427185;28;20192;-74
2023/04/17 14:05:14;;;;;;;2.40;1.83;;;14.70;99.90;;;;;;10421140;28;20605;-75
2023/04/17 14:10:15;;;;;;;1.80;1.70;;;14.50;99.90;;;;;;10430755;28;20192;-75
2023/04/17 14:15:16;;;;;;;3.47;2.10;;;14.30;99.90;;;;;;10406202;28;20238;-74
2023/04/17 14:20:18;;;;;;;4.20;2.30;;;14.30;99.90;;;;;;10423447;28;20177;-73
2023/04/17 14:25:19;;;;;;;3.87;2.50;;;14.60;99.90;;;;;;10424921;28;20216;-75
2023/04/17 14:30:20;;;;;;;3.63;2.60;;;14.80;99.90;;;;;;10422746;28;20559;-75
2023/04/17 14:35:21;;;;;;;2.77;2.57;;;15.00;99.90;;;;;;10438517;28;20215;-74
2023/04/17 14:40:21;;;;;;;3.53;2.53;;;14.80;99.90;;;;;;10425500;28;20185;-74
2023/04/17 14:45:22;;;;;;;3.10;2.80;;;14.90;99.90;;;;;;10430800;28;20201;-74
2023/04/17 14:50:23;;;;;;;4.53;2.83;;;14.60;99.90;;;;;;10423906;28;20263;-75
2023/04/17 14:55:23;;;;;;;3.03;2.83;;;14.60;99.90;;;;;;10419070;28;20723;-75
2023/04/17 15:00:24;;;;;;;3.87;3.23;;;14.60;99.90;;;;;;10429000;28;20678;-74
2023/04/17 15:05:25;;;;;;;3.77;3.47;;;14.80;99.90;;;;;;10423754;28;20284;-74
2023/04/17 15:10:26;;;;;;;6.30;3.33;;;14.70;99.90;;;;;;10430468;28;20242;-75
2023/04/17 15:15:27;;;;;;;6.57;3.40;;;14.70;99.90;;;;;;10413392;28;20297;-74
2023/04/17 15:20:28;;;;;;;3.40;3.10;;;14.50;99.90;;;;;;10430182;28;20187;-73
2023/04/17 15:25:30;;;;;;;5.43;3.50;;;14.50;99.90;;;;;;10421410;28;20217;-74
2023/04/17 15:30:30;;;;;;;4.63;3.70;;;14.50;99.90;;;;;;10424827;28;20215;-73
2023/04/17 15:35:31;;;;;;;9.30;3.47;;;14.30;99.90;;;;;;10429218;28;20608;-74
2023/04/17 15:40:32;;;;;;;5.47;3.13;;;14.20;99.90;;;;;;10436644;28;20238;-74
2023/04/17 15:45:33;;;;;;;5.43;3.40;;;14.20;99.90;;;;;;10425382;28;20238;-75
2023/04/17 15:50:34;;;;;;;5.50;3.33;;;14.30;99.90;;;;;;10427665;28;20220;-75
2023/04/17 15:55:35;;;;;;;5.37;3.40;;;14.30;99.90;;;;;;10429058;28;20290;-75
2023/04/17 16:00:36;;;;;;;5.20;3.57;;;14.50;99.90;;;;;;10429216;28;20221;-74
2023/04/17 16:05:36;;;;;;;4.80;3.50;;;14.60;99.90;;;;;;10435748;28;20220;-75
2023/04/17 16:10:37;;;;;;;6.37;3.20;;;14.80;99.90;;;;;;10419114;28;20258;-74
2023/04/17 16:15:38;;;;;;;4.43;3.30;;;14.70;99.90;;;;;;10436185;28;20292;-75
2023/04/17 16:20:38;;;;;;;6.17;3.57;;;14.70;99.90;;;;;;10428758;28;20228;-75
2023/04/17 16:25:39;;;;;;;6.40;3.80;;;14.70;99.90;;;;;;10429983;28;20224;-75
2023/04/17 16:30:40;;;;;;;4.80;3.47;;;14.70;99.90;;;;;;10434358;28;20796;-75
2023/04/17 16:35:40;;;;;;;4.63;3.60;;;14.50;99.90;;;;;;10429343;28;20706;-75
2023/04/17 16:40:41;;;;;;;6.07;3.60;;;14.30;99.90;;;;;;10434578;28;20224;-75
2023/04/17 16:45:41;;;;;;;6.90;3.90;;;14.30;99.60;;;;;;10426863;28;20657;-74
2023/04/17 16:50:42;;;;;;;5.13;4.00;;;14.30;99.60;;;;;;10410910;28;20234;-75
2023/04/17 16:55:43;;;;;;;5.87;4.07;;;14.30;98.00;;;;;;10426139;28;20255;-75
2023/04/17 17:00:43;;;;;;;6.47;4.30;;;14.20;96.60;;;;;;10427717;28;20228;-73
2023/04/17 17:05:44;;;;;;;7.40;4.97;;;14.10;94.60;;;;;;10433336;28;20690;-75
2023/04/17 17:10:47;;;;;;;7.47;4.07;;;14.00;94.70;;;;;;10416849;28;20216;-74
2023/04/17 17:15:47;;;;;;;6.43;4.23;;;13.90;93.90;;;;;;10427262;28;20228;-74
2023/04/17 17:20:49;;;;;;;7.07;4.33;;;13.70;93.80;;;;;;10434170;28;20216;-75
2023/04/17 17:25:49;;;;;;;6.83;4.03;;;13.70;93.80;;;;;;10430925;28;20273;-74
2023/04/17 17:31:05;;;;;;;13.23;4.17;;;13.60;92.90;;;;;;10427745;28;20273;-74
2023/04/17 17:36:07;;;;;;;5.83;4.37;;;13.50;92.50;;;;;;10429811;28;20357;-75
2023/04/17 17:41:08;;;;;;;5.60;4.23;;;13.50;93.10;;;;;;10429962;28;20219;-75
2023/04/17 17:46:08;;;;;;;7.57;4.47;;;13.40;93.40;;;;;;10427214;28;20612;-74
2023/04/17 17:51:09;;;;;;;7.00;3.93;;;13.30;92.10;;;;;;10430807;28;20218;-74
2023/04/17 17:56:10;;;;;;;7.43;4.57;;;13.30;92.40;;;;;;10422373;28;20232;-75
2023/04/17 18:01:11;;;;;;;7.20;4.03;;;13.20;92.40;;;;;;10427683;28;20219;-74
2023/04/17 18:06:12;;;;;;;7.30;4.50;;;13.20;93.20;;;;;;10427004;28;20330;-75
2023/04/17 18:11:13;;;;;;;7.43;4.20;;;13.10;93.50;;;;;;10429842;28;20705;-74
2023/04/17 18:16:14;;;;;;;7.60;4.23;;;13.00;93.40;;;;;;10418149;28;20227;-74
2023/04/17 18:21:14;;;;;;;8.27;3.93;;;13.00;93.80;;;;;;10430817;28;20227;-75
2023/04/17 18:26:15;;;;;;;7.53;4.30;;;12.90;93.90;;;;;;10404314;28;20303;-73
2023/04/17 18:31:16;;;;;;;6.93;4.07;;;12.80;94.50;;;;;;10409433;28;20267;-73
2023/04/17 18:36:16;;;;;;;5.40;3.83;;;12.80;94.70;;;;;;10420183;28;20232;-74
2023/04/17 18:41:17;;;;;;;7.30;4.00;;;12.70;94.60;;;;;;10429778;28;20620;-73
2023/04/17 18:46:18;;;;;;;6.47;4.03;;;12.60;95.00;;;;;;10423557;28;20238;-74
2023/04/17 18:51:20;;;;;;;4.60;3.80;;;12.60;95.30;;;;;;10417191;28;20217;-78
2023/04/17 18:56:21;;;;;;;6.83;4.23;;;12.50;95.40;;;;;;10427210;28;20228;-75
2023/04/17 19:01:22;;;;;;;5.53;4.00;;;12.50;95.50;;;;;;10401614;28;20228;-74
2023/04/17 19:06:22;;;;;;;7.57;4.40;;;12.50;96.00;;;;;;10410689;28;20221;-73
2023/04/17 19:11:26;;;;;;;5.20;3.83;;;12.40;95.40;;;;;;10417540;28;20579;-78
2023/04/17 19:16:26;;;;;;;8.40;4.60;;;12.40;95.90;;;;;;10423539;28;20236;-76
2023/04/17 19:21:27;;;;;;;7.43;4.53;;;12.30;96.30;;;;;;10442999;28;20315;-75
2023/04/17 19:26:28;;;;;;;5.57;4.57;;;12.30;96.30;;;;;;10440188;28;20281;-75
2023/04/17 19:31:28;;;;;;;7.97;5.23;;;12.30;96.70;;;;;;10431399;28;20235;-76
2023/04/17 19:36:29;;;;;;;10.90;4.67;;;12.20;97.20;;;;;;10431092;28;20259;-74
2023/04/17 19:41:29;;;;;;;9.50;4.70;;;12.10;97.00;;;;;;10438137;28;20365;-75
2023/04/17 19:46:30;;;;;;;8.73;4.90;;;12.10;97.50;;;;;;10430346;28;20683;-77
2023/04/17 19:51:31;;;;;;;8.57;4.80;;;12.10;97.90;;;;;;10411541;28;20251;-76
2023/04/17 19:56:31;;;;;;;10.60;5.67;;;12.00;97.90;;;;;;10423077;28;20591;-78
2023/04/17 20:01:32;;;;;;;12.67;6.00;;;11.90;98.50;;;;;;10426422;28;20318;-76
2023/04/17 20:06:33;;;;;;;8.10;4.70;;;11.80;98.90;;;;;;10437825;28;20220;-76
2023/04/17 20:11:33;;;;;;;6.70;4.70;;;11.80;99.00;;;;;;10437185;28;20753;-77
2023/04/17 20:16:34;;;;;;;8.87;5.00;;;11.70;99.30;;;;;;10428635;28;20236;-76
2023/04/17 20:21:38;;;;;;;15.00;7.10;;;11.60;99.70;;;;;;10438119;28;20887;-76
2023/04/17 20:26:39;;;;;;;10.03;5.77;;;11.40;99.50;;;;;;10427189;28;20244;-78
2023/04/17 20:31:45;;;;;;;11.37;6.87;;;11.30;99.90;;;;;;10433007;28;20397;-79
2023/04/17 20:36:45;;;;;;;11.83;5.93;;;11.10;99.90;;;;;;10433362;28;20242;-75
2023/04/17 20:41:46;;;;;;;13.10;6.00;;;11.00;99.90;;;;;;10432862;28;20222;-76
2023/04/17 20:46:47;;;;;;;6.17;4.70;;;10.90;99.90;;;;;;10434283;28;20315;-75
2023/04/17 20:51:48;;;;;;;7.00;4.87;;;10.80;99.90;;;;;;10435283;28;20230;-74
2023/04/17 20:56:48;;;;;;;8.57;4.90;;;10.70;99.90;;;;;;10423383;28;20706;-74
2023/04/17 21:01:50;;;;;;;7.47;5.20;;;10.60;99.90;;;;;;10422106;28;20240;-74
2023/04/17 21:06:55;;;;;;;9.30;4.20;;;10.50;99.90;;;;;;10423735;28;20231;-74
2023/04/17 21:11:56;;;;;;;9.20;4.60;;;10.50;99.90;;;;;;10430626;28;20679;-74
2023/04/17 21:16:57;;;;;;;12.87;5.73;;;10.40;99.90;;;;;;10427487;28;20306;-73
2023/04/17 21:21:58;;;;;;;9.47;5.57;;;10.30;99.90;;;;;;10435093;28;20238;-72
2023/04/17 21:26:58;;;;;;;9.97;4.93;;;10.30;99.90;;;;;;10428730;28;20231;-72
2023/04/17 21:31:59;;;;;;;6.67;4.93;;;10.20;99.90;;;;;;10430449;28;20600;-73
2023/04/17 21:37:03;;;;;;;7.67;4.87;;;10.10;99.90;;;;;;10436240;28;20242;-74
2023/04/17 21:42:04;;;;;;;9.13;5.40;;;10.00;99.90;;;;;;10433931;28;20233;-74
2023/04/17 21:47:04;;;;;;;10.37;5.50;;;10.00;99.90;;;;;;10428891;28;20249;-75
2023/04/17 21:52:05;;;;;;;10.80;5.90;;;9.90;99.90;;;;;;10429982;28;20304;-74
2023/04/17 21:57:06;;;;;;;9.47;5.53;;;9.90;99.90;;;;;;10430992;28;20774;-75
2023/04/17 22:02:06;;;;;;;17.83;8.10;;;9.90;99.90;;;;;;10428364;28;20235;-75
2023/04/17 22:07:07;;;;;;;23.17;8.27;;;9.80;99.90;;;;;;10423454;28;20794;-75
2023/04/17 22:12:19;;;;;;;22.73;9.70;;;9.70;99.90;;;;;;10429355;28;20220;-74
2023/04/17 22:17:20;;;;;;;24.13;9.70;;;9.70;99.90;;;;;;10424256;28;20232;-74
2023/04/17 22:22:20;;;;;;;19.87;9.53;;;9.70;99.90;;;;;;10422932;28;20277;-74
2023/04/17 22:27:21;;;;;;;9.33;5.63;;;9.80;99.90;;;;;;10423972;28;20725;-74
2023/04/17 22:32:21;;;;;;;11.90;5.57;;;9.80;99.90;;;;;;10430792;28;20220;-73
2023/04/17 22:37:22;;;;;;;7.40;5.23;;;9.90;99.90;;;;;;10424773;28;20229;-73
2023/04/17 22:42:22;;;;;;;9.60;5.50;;;9.90;99.90;;;;;;10436944;28;20243;-74
2023/04/17 22:47:23;;;;;;;9.77;5.00;;;9.90;99.90;;;;;;10430605;28;20697;-74
2023/04/17 22:52:24;;;;;;;11.33;5.83;;;9.80;99.90;;;;;;10431119;28;20831;-73
2023/04/17 22:57:24;;;;;;;8.17;5.53;;;9.70;99.90;;;;;;10436381;28;20261;-73
2023/04/17 23:02:25;;;;;;;9.73;5.63;;;9.60;99.90;;;;;;10436255;28;20239;-74
2023/04/17 23:07:25;;;;;;;8.63;5.70;;;9.50;99.90;;;;;;10440897;28;20597;-74
2023/04/17 23:12:27;;;;;;;13.27;6.93;;;9.50;99.90;;;;;;10432311;28;20768;-73
2023/04/17 23:17:28;;;;;;;13.63;7.00;;;9.40;99.90;;;;;;10443777;28;20246;-73
2023/04/17 23:22:28;;;;;;;15.73;7.40;;;9.40;99.90;;;;;;10425774;28;20226;-74
2023/04/17 23:27:29;;;;;;;11.63;6.23;;;9.50;99.90;;;;;;10444178;28;20227;-73
2023/04/17 23:32:30;;;;;;;7.73;5.67;;;9.50;99.90;;;;;;10444182;28;20223;-75
2023/04/17 23:37:31;;;;;;;8.67;6.30;;;9.50;99.90;;;;;;10435802;28;20236;-74
2023/04/17 23:42:31;;;;;;;7.73;5.23;;;9.50;99.90;;;;;;10427306;28;20646;-72
2023/04/17 23:47:32;;;;;;;9.57;5.43;;;9.40;99.90;;;;;;10442857;28;20227;-73
2023/04/17 23:52:33;;;;;;;8.47;5.27;;;9.40;99.90;;;;;;10439577;28;20231;-73
2023/04/17 23:57:34;;;;;;;10.83;5.20;;;9.40;99.90;;;;;;10429008;28;20240;-73
